sensor_id;sensor_type;location;lat;lon;timestamp;temperature;humidity
73121;DHT22;61307;49.628;-1.624;2024-02-26T00:02:06;21.30;39.60
73121;DHT22;61307;49.628;-1.624;2024-02-26T00:04:34;21.30;39.60
73121;DHT22;61307;49.628;-1.624;2024-02-26T00:07:01;21.30;39.60
73121;DHT22;61307;49.628;-1.624;2024-02-26T00:09:28;21.30;39.60
73121;DHT22;61307;49.628;-1.624;2024-02-26T00:11:55;21.30;39.60
73121;DHT22;61307;49.628;-1.624;2024-02-26T00:14:23;21.30;39.60
73121;DHT22;61307;49.628;-1.624;2024-02-26T00:16:50;21.30;39.60
73121;DHT22;61307;49.628;-1.624;2024-02-26T00:19:17;21.30;39.60
73121;DHT22;61307;49.628;-1.624;2024-02-26T00:21:45;21.30;39.60
73121;DHT22;61307;49.628;-1.624;2024-02-26T00:24:12;21.30;39.60
73121;DHT22;61307;49.628;-1.624;2024-02-26T00:26:39;21.30;39.50
73121;DHT22;61307;49.628;-1.624;2024-02-26T00:29:06;21.30;39.50
73121;DHT22;61307;49.628;-1.624;2024-02-26T00:31:33;21.30;39.50
73121;DHT22;61307;49.628;-1.624;2024-02-26T00:34:00;21.30;40.20
73121;DHT22;61307;49.628;-1.624;2024-02-26T00:36:27;21.30;39.50
73121;DHT22;61307;49.628;-1.624;2024-02-26T00:38:55;21.30;40.20
73121;DHT22;61307;49.628;-1.624;2024-02-26T00:41:22;21.30;39.50
73121;DHT22;61307;49.628;-1.624;2024-02-26T00:43:49;21.30;39.50
73121;DHT22;61307;49.628;-1.624;2024-02-26T00:46:16;21.30;39.50
73121;DHT22;61307;49.628;-1.624;2024-02-26T00:48:43;21.30;39.50
73121;DHT22;61307;49.628;-1.624;2024-02-26T00:51:10;21.30;39.50
73121;DHT22;61307;49.628;-1.624;2024-02-26T00:53:37;21.20;39.40
73121;DHT22;61307;49.628;-1.624;2024-02-26T00:56:05;21.20;39.40
73121;DHT22;61307;49.628;-1.624;2024-02-26T00:58:32;21.30;39.50
73121;DHT22;61307;49.628;-1.624;2024-02-26T01:00:59;21.30;39.50
73121;DHT22;61307;49.628;-1.624;2024-02-26T01:03:26;21.30;39.40
73121;DHT22;61307;49.628;-1.624;2024-02-26T01:05:53;21.30;39.40
73121;DHT22;61307;49.628;-1.624;2024-02-26T01:08:19;21.30;40.00
73121;DHT22;61307;49.628;-1.624;2024-02-26T01:10:46;21.20;39.30
73121;DHT22;61307;49.628;-1.624;2024-02-26T01:13:14;21.30;39.30
73121;DHT22;61307;49.628;-1.624;2024-02-26T01:15:41;21.30;39.30
73121;DHT22;61307;49.628;-1.624;2024-02-26T01:18:09;21.30;39.30
73121;DHT22;61307;49.628;-1.624;2024-02-26T01:20:36;21.20;39.20
73121;DHT22;61307;49.628;-1.624;2024-02-26T01:23:03;21.20;39.20
73121;DHT22;61307;49.628;-1.624;2024-02-26T01:25:30;21.30;39.20
73121;DHT22;61307;49.628;-1.624;2024-02-26T01:27:57;21.20;39.10
73121;DHT22;61307;49.628;-1.624;2024-02-26T01:30:25;21.20;39.70
73121;DHT22;61307;49.628;-1.624;2024-02-26T01:32:52;21.20;39.10
73121;DHT22;61307;49.628;-1.624;2024-02-26T01:35:19;21.20;39.00
73121;DHT22;61307;49.628;-1.624;2024-02-26T01:37:46;21.30;39.10
73121;DHT22;61307;49.628;-1.624;2024-02-26T01:40:13;21.30;39.10
73121;DHT22;61307;49.628;-1.624;2024-02-26T01:42:43;21.20;39.00
73121;DHT22;61307;49.628;-1.624;2024-02-26T01:45:14;21.20;39.00
73121;DHT22;61307;49.628;-1.624;2024-02-26T01:47:49;21.20;39.00
73121;DHT22;61307;49.628;-1.624;2024-02-26T01:50:17;21.20;39.00
73121;DHT22;61307;49.628;-1.624;2024-02-26T01:52:44;21.20;38.90
73121;DHT22;61307;49.628;-1.624;2024-02-26T01:55:12;21.20;39.00
73121;DHT22;61307;49.628;-1.624;2024-02-26T01:57:41;21.20;38.90
73121;DHT22;61307;49.628;-1.624;2024-02-26T02:00:09;21.20;38.90
73121;DHT22;61307;49.628;-1.624;2024-02-26T02:02:36;21.20;38.90
73121;DHT22;61307;49.628;-1.624;2024-02-26T02:05:06;21.20;38.80
73121;DHT22;61307;49.628;-1.624;2024-02-26T02:07:34;21.20;38.80
73121;DHT22;61307;49.628;-1.624;2024-02-26T02:10:02;21.20;38.80
73121;DHT22;61307;49.628;-1.624;2024-02-26T02:12:30;21.20;38.80
73121;DHT22;61307;49.628;-1.624;2024-02-26T02:14:58;21.20;38.70
73121;DHT22;61307;49.628;-1.624;2024-02-26T02:17:27;21.10;38.70
73121;DHT22;61307;49.628;-1.624;2024-02-26T02:19:54;21.20;38.80
73121;DHT22;61307;49.628;-1.624;2024-02-26T02:22:22;21.20;38.70
73121;DHT22;61307;49.628;-1.624;2024-02-26T02:24:49;21.20;38.70
73121;DHT22;61307;49.628;-1.624;2024-02-26T02:27:16;21.20;38.70
73121;DHT22;61307;49.628;-1.624;2024-02-26T02:29:43;21.20;38.70
73121;DHT22;61307;49.628;-1.624;2024-02-26T02:32:10;21.20;38.60
73121;DHT22;61307;49.628;-1.624;2024-02-26T02:34:37;21.20;38.60
73121;DHT22;61307;49.628;-1.624;2024-02-26T02:37:04;21.20;38.50
73121;DHT22;61307;49.628;-1.624;2024-02-26T02:39:32;21.20;38.50
73121;DHT22;61307;49.628;-1.624;2024-02-26T02:41:59;21.20;38.50
73121;DHT22;61307;49.628;-1.624;2024-02-26T02:44:26;21.20;39.20
73121;DHT22;61307;49.628;-1.624;2024-02-26T02:46:53;21.20;38.50
73121;DHT22;61307;49.628;-1.624;2024-02-26T02:49:20;21.20;38.40
73121;DHT22;61307;49.628;-1.624;2024-02-26T02:51:49;21.20;38.40
73121;DHT22;61307;49.628;-1.624;2024-02-26T02:54:16;21.20;38.40
73121;DHT22;61307;49.628;-1.624;2024-02-26T02:56:44;21.20;38.40
73121;DHT22;61307;49.628;-1.624;2024-02-26T02:59:11;21.20;38.40
73121;DHT22;61307;49.628;-1.624;2024-02-26T03:01:37;21.20;38.30
73121;DHT22;61307;49.628;-1.624;2024-02-26T03:04:04;21.20;38.20
73121;DHT22;61307;49.628;-1.624;2024-02-26T03:06:31;21.20;38.90
73121;DHT22;61307;49.628;-1.624;2024-02-26T03:08:58;21.20;38.20
73121;DHT22;61307;49.628;-1.624;2024-02-26T03:11:26;21.20;38.20
73121;DHT22;61307;49.628;-1.624;2024-02-26T03:13:54;21.20;38.20
73121;DHT22;61307;49.628;-1.624;2024-02-26T03:16:21;21.20;38.20
73121;DHT22;61307;49.628;-1.624;2024-02-26T03:18:48;21.20;38.20
73121;DHT22;61307;49.628;-1.624;2024-02-26T03:21:15;21.10;38.10
73121;DHT22;61307;49.628;-1.624;2024-02-26T03:23:42;21.10;38.10
73121;DHT22;61307;49.628;-1.624;2024-02-26T03:26:09;21.10;38.10
73121;DHT22;61307;49.628;-1.624;2024-02-26T03:28:39;21.10;38.10
73121;DHT22;61307;49.628;-1.624;2024-02-26T03:31:07;21.10;38.10
73121;DHT22;61307;49.628;-1.624;2024-02-26T03:33:34;21.10;38.10
73121;DHT22;61307;49.628;-1.624;2024-02-26T03:36:01;21.10;38.10
73121;DHT22;61307;49.628;-1.624;2024-02-26T03:38:28;21.10;38.10
73121;DHT22;61307;49.628;-1.624;2024-02-26T03:40:55;21.10;38.10
73121;DHT22;61307;49.628;-1.624;2024-02-26T03:43:22;21.10;38.00
73121;DHT22;61307;49.628;-1.624;2024-02-26T03:45:49;21.10;38.00
73121;DHT22;61307;49.628;-1.624;2024-02-26T03:48:17;21.10;38.00
73121;DHT22;61307;49.628;-1.624;2024-02-26T03:50:44;21.10;38.00
73121;DHT22;61307;49.628;-1.624;2024-02-26T03:53:11;21.10;38.00
73121;DHT22;61307;49.628;-1.624;2024-02-26T03:55:38;21.10;38.00
73121;DHT22;61307;49.628;-1.624;2024-02-26T03:58:07;21.10;38.00
73121;DHT22;61307;49.628;-1.624;2024-02-26T04:00:34;21.10;37.90
73121;DHT22;61307;49.628;-1.624;2024-02-26T04:03:01;21.10;37.90
73121;DHT22;61307;49.628;-1.624;2024-02-26T04:05:29;21.10;37.90
73121;DHT22;61307;49.628;-1.624;2024-02-26T04:07:56;21.10;38.00
73121;DHT22;61307;49.628;-1.624;2024-02-26T04:10:22;21.10;37.90
73121;DHT22;61307;49.628;-1.624;2024-02-26T04:12:50;21.10;38.60
73121;DHT22;61307;49.628;-1.624;2024-02-26T04:15:17;21.10;37.90
73121;DHT22;61307;49.628;-1.624;2024-02-26T04:17:43;21.10;37.90
73121;DHT22;61307;49.628;-1.624;2024-02-26T04:20:13;21.10;37.90
73121;DHT22;61307;49.628;-1.624;2024-02-26T04:22:42;21.10;37.90
73121;DHT22;61307;49.628;-1.624;2024-02-26T04:25:09;21.10;37.80
73121;DHT22;61307;49.628;-1.624;2024-02-26T04:27:36;21.10;37.80
73121;DHT22;61307;49.628;-1.624;2024-02-26T04:30:05;21.10;37.80
73121;DHT22;61307;49.628;-1.624;2024-02-26T04:32:32;21.10;37.80
73121;DHT22;61307;49.628;-1.624;2024-02-26T04:34:59;21.10;37.80
73121;DHT22;61307;49.628;-1.624;2024-02-26T04:37:26;21.10;37.70
73121;DHT22;61307;49.628;-1.624;2024-02-26T04:39:58;21.10;37.80
73121;DHT22;61307;49.628;-1.624;2024-02-26T04:42:25;21.10;37.80
73121;DHT22;61307;49.628;-1.624;2024-02-26T04:44:52;21.10;37.80
73121;DHT22;61307;49.628;-1.624;2024-02-26T04:47:18;21.10;37.80
73121;DHT22;61307;49.628;-1.624;2024-02-26T04:49:47;21.10;37.80
73121;DHT22;61307;49.628;-1.624;2024-02-26T04:52:14;21.10;37.70
73121;DHT22;61307;49.628;-1.624;2024-02-26T04:54:41;21.10;37.70
73121;DHT22;61307;49.628;-1.624;2024-02-26T04:57:09;21.10;37.70
73121;DHT22;61307;49.628;-1.624;2024-02-26T04:59:36;21.10;37.70
73121;DHT22;61307;49.628;-1.624;2024-02-26T05:02:03;21.10;37.70
73121;DHT22;61307;49.628;-1.624;2024-02-26T05:04:30;21.10;37.70
73121;DHT22;61307;49.628;-1.624;2024-02-26T05:06:57;21.10;37.70
73121;DHT22;61307;49.628;-1.624;2024-02-26T05:09:24;21.10;37.70
73121;DHT22;61307;49.628;-1.624;2024-02-26T05:11:50;21.10;37.70
73121;DHT22;61307;49.628;-1.624;2024-02-26T05:14:19;21.10;37.70
73121;DHT22;61307;49.628;-1.624;2024-02-26T05:16:47;21.10;37.70
73121;DHT22;61307;49.628;-1.624;2024-02-26T05:19:14;21.00;37.70
73121;DHT22;61307;49.628;-1.624;2024-02-26T05:21:41;21.10;37.70
73121;DHT22;61307;49.628;-1.624;2024-02-26T05:24:08;21.00;37.70
73121;DHT22;61307;49.628;-1.624;2024-02-26T05:26:35;21.00;37.70
73121;DHT22;61307;49.628;-1.624;2024-02-26T05:29:02;21.00;37.60
73121;DHT22;61307;49.628;-1.624;2024-02-26T05:31:30;21.00;37.70
73121;DHT22;61307;49.628;-1.624;2024-02-26T05:33:57;21.00;37.60
73121;DHT22;61307;49.628;-1.624;2024-02-26T05:36:24;21.10;37.70
73121;DHT22;61307;49.628;-1.624;2024-02-26T05:38:51;21.10;37.70
73121;DHT22;61307;49.628;-1.624;2024-02-26T05:41:18;21.10;37.60
73121;DHT22;61307;49.628;-1.624;2024-02-26T05:43:48;21.10;37.60
73121;DHT22;61307;49.628;-1.624;2024-02-26T05:46:16;21.10;37.50
73121;DHT22;61307;49.628;-1.624;2024-02-26T05:48:46;21.10;38.10
73121;DHT22;61307;49.628;-1.624;2024-02-26T05:51:13;21.10;37.40
73121;DHT22;61307;49.628;-1.624;2024-02-26T05:53:41;21.10;37.40
73121;DHT22;61307;49.628;-1.624;2024-02-26T05:56:08;21.10;37.40
73121;DHT22;61307;49.628;-1.624;2024-02-26T05:58:35;21.10;37.40
73121;DHT22;61307;49.628;-1.624;2024-02-26T06:01:02;21.10;37.40
73121;DHT22;61307;49.628;-1.624;2024-02-26T06:03:29;21.10;37.40
73121;DHT22;61307;49.628;-1.624;2024-02-26T06:05:57;21.10;37.40
73121;DHT22;61307;49.628;-1.624;2024-02-26T06:08:24;21.10;37.40
73121;DHT22;61307;49.628;-1.624;2024-02-26T06:10:51;21.10;37.40
73121;DHT22;61307;49.628;-1.624;2024-02-26T06:13:18;21.10;37.30
73121;DHT22;61307;49.628;-1.624;2024-02-26T06:15:44;21.10;37.40
73121;DHT22;61307;49.628;-1.624;2024-02-26T06:18:11;21.10;37.40
73121;DHT22;61307;49.628;-1.624;2024-02-26T06:20:38;21.10;37.30
73121;DHT22;61307;49.628;-1.624;2024-02-26T06:23:07;21.10;37.30
73121;DHT22;61307;49.628;-1.624;2024-02-26T06:25:34;21.10;37.30
73121;DHT22;61307;49.628;-1.624;2024-02-26T06:28:01;21.10;37.30
73121;DHT22;61307;49.628;-1.624;2024-02-26T06:30:27;21.00;37.30
73121;DHT22;61307;49.628;-1.624;2024-02-26T06:32:54;21.10;37.30
73121;DHT22;61307;49.628;-1.624;2024-02-26T06:35:21;21.00;37.20
73121;DHT22;61307;49.628;-1.624;2024-02-26T06:37:48;21.10;37.40
73121;DHT22;61307;49.628;-1.624;2024-02-26T06:40:19;21.00;37.20
73121;DHT22;61307;49.628;-1.624;2024-02-26T06:42:46;21.00;37.30
73121;DHT22;61307;49.628;-1.624;2024-02-26T06:45:13;21.00;37.20
73121;DHT22;61307;49.628;-1.624;2024-02-26T06:47:39;21.00;37.20
73121;DHT22;61307;49.628;-1.624;2024-02-26T06:50:07;21.00;37.30
73121;DHT22;61307;49.628;-1.624;2024-02-26T06:52:34;21.00;37.30
73121;DHT22;61307;49.628;-1.624;2024-02-26T06:55:01;21.00;37.20
73121;DHT22;61307;49.628;-1.624;2024-02-26T06:57:29;21.00;37.20
73121;DHT22;61307;49.628;-1.624;2024-02-26T06:59:56;21.00;37.30
73121;DHT22;61307;49.628;-1.624;2024-02-26T07:02:24;21.00;37.20
73121;DHT22;61307;49.628;-1.624;2024-02-26T07:04:51;21.00;37.80
73121;DHT22;61307;49.628;-1.624;2024-02-26T07:07:18;21.00;37.30
73121;DHT22;61307;49.628;-1.624;2024-02-26T07:09:45;21.10;37.40
73121;DHT22;61307;49.628;-1.624;2024-02-26T07:12:12;21.10;37.30
73121;DHT22;61307;49.628;-1.624;2024-02-26T07:14:40;21.10;37.30
73121;DHT22;61307;49.628;-1.624;2024-02-26T07:17:07;21.10;37.30
73121;DHT22;61307;49.628;-1.624;2024-02-26T07:19:34;21.10;37.20
73121;DHT22;61307;49.628;-1.624;2024-02-26T07:22:01;21.10;37.10
73121;DHT22;61307;49.628;-1.624;2024-02-26T07:24:28;21.20;37.10
73121;DHT22;61307;49.628;-1.624;2024-02-26T07:26:55;21.10;37.00
73121;DHT22;61307;49.628;-1.624;2024-02-26T07:29:21;21.20;37.00
73121;DHT22;61307;49.628;-1.624;2024-02-26T07:31:50;21.10;36.90
73121;DHT22;61307;49.628;-1.624;2024-02-26T07:34:17;21.10;36.90
73121;DHT22;61307;49.628;-1.624;2024-02-26T07:36:44;21.10;36.80
73121;DHT22;61307;49.628;-1.624;2024-02-26T07:39:11;21.10;36.80
73121;DHT22;61307;49.628;-1.624;2024-02-26T07:41:38;21.10;36.80
73121;DHT22;61307;49.628;-1.624;2024-02-26T07:44:05;21.10;36.80
73121;DHT22;61307;49.628;-1.624;2024-02-26T07:46:32;21.00;36.90
73121;DHT22;61307;49.628;-1.624;2024-02-26T07:49:00;21.10;36.80
73121;DHT22;61307;49.628;-1.624;2024-02-26T07:51:27;21.00;36.80
73121;DHT22;61307;49.628;-1.624;2024-02-26T07:53:54;21.00;36.80
73121;DHT22;61307;49.628;-1.624;2024-02-26T07:56:21;21.00;36.90
73121;DHT22;61307;49.628;-1.624;2024-02-26T07:58:47;21.10;36.90
73121;DHT22;61307;49.628;-1.624;2024-02-26T08:01:14;21.10;36.90
73121;DHT22;61307;49.628;-1.624;2024-02-26T08:03:41;21.10;36.90
73121;DHT22;61307;49.628;-1.624;2024-02-26T08:06:09;21.10;36.90
73121;DHT22;61307;49.628;-1.624;2024-02-26T08:08:36;21.10;36.90
73121;DHT22;61307;49.628;-1.624;2024-02-26T08:11:04;21.10;36.90
73121;DHT22;61307;49.628;-1.624;2024-02-26T08:13:30;21.10;37.00
73121;DHT22;61307;49.628;-1.624;2024-02-26T08:15:57;21.10;37.10
73121;DHT22;61307;49.628;-1.624;2024-02-26T08:18:24;21.10;37.30
73121;DHT22;61307;49.628;-1.624;2024-02-26T08:20:51;21.10;37.70
73121;DHT22;61307;49.628;-1.624;2024-02-26T08:23:19;21.10;37.70
73121;DHT22;61307;49.628;-1.624;2024-02-26T08:25:46;21.20;37.00
73121;DHT22;61307;49.628;-1.624;2024-02-26T08:28:13;21.20;37.00
73121;DHT22;61307;49.628;-1.624;2024-02-26T08:30:43;21.20;36.80
73121;DHT22;61307;49.628;-1.624;2024-02-26T08:33:10;21.10;36.70
73121;DHT22;61307;49.628;-1.624;2024-02-26T08:35:37;21.10;36.60
73121;DHT22;61307;49.628;-1.624;2024-02-26T08:38:04;21.20;36.70
73121;DHT22;61307;49.628;-1.624;2024-02-26T08:40:32;21.10;36.60
73121;DHT22;61307;49.628;-1.624;2024-02-26T08:42:59;21.20;36.70
73121;DHT22;61307;49.628;-1.624;2024-02-26T08:45:26;21.20;36.80
73121;DHT22;61307;49.628;-1.624;2024-02-26T08:47:53;21.10;36.60
73121;DHT22;61307;49.628;-1.624;2024-02-26T08:50:20;21.10;36.50
73121;DHT22;61307;49.628;-1.624;2024-02-26T08:52:46;21.10;36.40
73121;DHT22;61307;49.628;-1.624;2024-02-26T08:55:16;21.20;36.50
73121;DHT22;61307;49.628;-1.624;2024-02-26T08:57:44;21.20;36.40
73121;DHT22;61307;49.628;-1.624;2024-02-26T09:00:12;21.20;36.40
73121;DHT22;61307;49.628;-1.624;2024-02-26T09:02:41;21.20;36.40
73121;DHT22;61307;49.628;-1.624;2024-02-26T09:05:09;21.20;36.20
73121;DHT22;61307;49.628;-1.624;2024-02-26T09:07:36;21.20;36.20
73121;DHT22;61307;49.628;-1.624;2024-02-26T09:10:04;21.20;36.20
73121;DHT22;61307;49.628;-1.624;2024-02-26T09:12:31;21.20;36.00
73121;DHT22;61307;49.628;-1.624;2024-02-26T09:14:59;21.20;36.00
73121;DHT22;61307;49.628;-1.624;2024-02-26T09:17:26;21.20;35.80
73121;DHT22;61307;49.628;-1.624;2024-02-26T09:19:53;21.20;35.80
73121;DHT22;61307;49.628;-1.624;2024-02-26T09:22:20;21.20;35.70
73121;DHT22;61307;49.628;-1.624;2024-02-26T09:24:47;21.20;35.70
73121;DHT22;61307;49.628;-1.624;2024-02-26T09:27:15;21.20;35.50
73121;DHT22;61307;49.628;-1.624;2024-02-26T09:29:42;21.20;35.50
73121;DHT22;61307;49.628;-1.624;2024-02-26T09:32:11;21.30;35.60
73121;DHT22;61307;49.628;-1.624;2024-02-26T09:34:39;21.30;35.40
73121;DHT22;61307;49.628;-1.624;2024-02-26T09:37:06;21.20;35.30
73121;DHT22;61307;49.628;-1.624;2024-02-26T09:39:33;21.20;35.20
73121;DHT22;61307;49.628;-1.624;2024-02-26T09:42:04;21.20;35.90
73121;DHT22;61307;49.628;-1.624;2024-02-26T09:44:34;21.20;35.20
73121;DHT22;61307;49.628;-1.624;2024-02-26T09:47:05;21.20;35.10
73121;DHT22;61307;49.628;-1.624;2024-02-26T09:49:36;21.20;35.00
73121;DHT22;61307;49.628;-1.624;2024-02-26T09:52:04;21.20;35.10
73121;DHT22;61307;49.628;-1.624;2024-02-26T09:54:32;21.20;35.10
73121;DHT22;61307;49.628;-1.624;2024-02-26T09:57:02;21.20;35.10
73121;DHT22;61307;49.628;-1.624;2024-02-26T09:59:33;21.20;35.20
73121;DHT22;61307;49.628;-1.624;2024-02-26T10:02:03;21.20;35.20
73121;DHT22;61307;49.628;-1.624;2024-02-26T10:04:31;21.20;35.00
73121;DHT22;61307;49.628;-1.624;2024-02-26T10:07:00;21.30;35.10
73121;DHT22;61307;49.628;-1.624;2024-02-26T10:09:29;21.30;35.30
73121;DHT22;61307;49.628;-1.624;2024-02-26T10:11:57;21.30;35.30
73121;DHT22;61307;49.628;-1.624;2024-02-26T10:14:25;21.30;35.40
73121;DHT22;61307;49.628;-1.624;2024-02-26T10:16:52;21.30;35.50
73121;DHT22;61307;49.628;-1.624;2024-02-26T10:19:25;21.30;35.70
73121;DHT22;61307;49.628;-1.624;2024-02-26T10:21:55;21.30;36.00
73121;DHT22;61307;49.628;-1.624;2024-02-26T10:24:24;21.30;36.30
73121;DHT22;61307;49.628;-1.624;2024-02-26T10:26:51;21.30;36.80
73121;DHT22;61307;49.628;-1.624;2024-02-26T10:29:19;21.30;36.70
73121;DHT22;61307;49.628;-1.624;2024-02-26T10:31:46;21.30;36.70
73121;DHT22;61307;49.628;-1.624;2024-02-26T10:34:14;21.30;36.90
73121;DHT22;61307;49.628;-1.624;2024-02-26T10:36:41;21.30;36.70
73121;DHT22;61307;49.628;-1.624;2024-02-26T10:39:09;21.30;36.90
73121;DHT22;61307;49.628;-1.624;2024-02-26T10:41:39;21.30;36.50
73121;DHT22;61307;49.628;-1.624;2024-02-26T10:44:08;21.30;36.30
73121;DHT22;61307;49.628;-1.624;2024-02-26T10:46:36;21.30;36.00
73121;DHT22;61307;49.628;-1.624;2024-02-26T10:49:04;21.30;35.70
73121;DHT22;61307;49.628;-1.624;2024-02-26T10:51:55;21.30;35.80
73121;DHT22;61307;49.628;-1.624;2024-02-26T10:54:26;21.30;35.60
73121;DHT22;61307;49.628;-1.624;2024-02-26T10:56:56;21.20;35.70
73121;DHT22;61307;49.628;-1.624;2024-02-26T10:59:24;21.20;35.60
73121;DHT22;61307;49.628;-1.624;2024-02-26T11:01:52;21.20;35.50
73121;DHT22;61307;49.628;-1.624;2024-02-26T11:04:20;21.20;35.40
73121;DHT22;61307;49.628;-1.624;2024-02-26T11:06:49;21.20;35.30
73121;DHT22;61307;49.628;-1.624;2024-02-26T11:09:17;21.20;35.20
73121;DHT22;61307;49.628;-1.624;2024-02-26T11:11:44;21.20;35.00
73121;DHT22;61307;49.628;-1.624;2024-02-26T11:14:12;21.20;35.00
73121;DHT22;61307;49.628;-1.624;2024-02-26T11:16:41;21.20;35.00
73121;DHT22;61307;49.628;-1.624;2024-02-26T11:19:09;21.20;34.90
73121;DHT22;61307;49.628;-1.624;2024-02-26T11:21:37;21.20;34.90
73121;DHT22;61307;49.628;-1.624;2024-02-26T11:24:11;21.20;34.80
73121;DHT22;61307;49.628;-1.624;2024-02-26T11:26:41;21.30;34.90
73121;DHT22;61307;49.628;-1.624;2024-02-26T11:29:13;21.30;34.60
73121;DHT22;61307;49.628;-1.624;2024-02-26T11:31:42;21.30;34.50
73121;DHT22;61307;49.628;-1.624;2024-02-26T11:34:09;21.30;34.30
73121;DHT22;61307;49.628;-1.624;2024-02-26T11:36:37;21.30;34.10
73121;DHT22;61307;49.628;-1.624;2024-02-26T11:39:05;21.30;34.20
73121;DHT22;61307;49.628;-1.624;2024-02-26T11:41:32;21.40;34.10
73121;DHT22;61307;49.628;-1.624;2024-02-26T11:44:00;21.40;34.00
73121;DHT22;61307;49.628;-1.624;2024-02-26T11:46:30;21.40;33.80
73121;DHT22;61307;49.628;-1.624;2024-02-26T11:48:58;21.40;33.70
73121;DHT22;61307;49.628;-1.624;2024-02-26T11:51:26;21.40;33.60
73121;DHT22;61307;49.628;-1.624;2024-02-26T11:53:54;21.40;33.70
73121;DHT22;61307;49.628;-1.624;2024-02-26T11:56:23;21.40;33.60
73121;DHT22;61307;49.628;-1.624;2024-02-26T11:58:59;21.40;33.60
73121;DHT22;61307;49.628;-1.624;2024-02-26T12:01:44;21.40;33.60
73121;DHT22;61307;49.628;-1.624;2024-02-26T12:04:15;21.40;33.50
73121;DHT22;61307;49.628;-1.624;2024-02-26T12:06:47;21.40;33.50
73121;DHT22;61307;49.628;-1.624;2024-02-26T12:09:32;21.40;33.50
73121;DHT22;61307;49.628;-1.624;2024-02-26T12:12:00;21.40;33.40
73121;DHT22;61307;49.628;-1.624;2024-02-26T12:14:28;21.40;33.30
73121;DHT22;61307;49.628;-1.624;2024-02-26T12:16:56;21.40;33.30
73121;DHT22;61307;49.628;-1.624;2024-02-26T12:19:24;21.40;33.30
73121;DHT22;61307;49.628;-1.624;2024-02-26T12:21:52;21.40;33.20
73121;DHT22;61307;49.628;-1.624;2024-02-26T12:24:20;21.40;33.60
73121;DHT22;61307;49.628;-1.624;2024-02-26T12:26:47;21.40;32.90
73121;DHT22;61307;49.628;-1.624;2024-02-26T12:29:14;21.40;32.80
73121;DHT22;61307;49.628;-1.624;2024-02-26T12:31:41;21.40;32.70
73121;DHT22;61307;49.628;-1.624;2024-02-26T12:34:10;21.40;33.70
73121;DHT22;61307;49.628;-1.624;2024-02-26T12:36:37;21.40;33.00
73121;DHT22;61307;49.628;-1.624;2024-02-26T12:39:06;21.40;32.80
73121;DHT22;61307;49.628;-1.624;2024-02-26T12:41:34;21.40;32.70
73121;DHT22;61307;49.628;-1.624;2024-02-26T12:44:02;21.40;32.70
73121;DHT22;61307;49.628;-1.624;2024-02-26T12:46:28;21.40;33.40
73121;DHT22;61307;49.628;-1.624;2024-02-26T12:48:56;21.40;32.70
73121;DHT22;61307;49.628;-1.624;2024-02-26T12:51:26;21.40;32.60
73121;DHT22;61307;49.628;-1.624;2024-02-26T12:53:55;21.40;32.60
73121;DHT22;61307;49.628;-1.624;2024-02-26T12:56:22;21.40;32.60
73121;DHT22;61307;49.628;-1.624;2024-02-26T12:58:50;21.40;32.60
73121;DHT22;61307;49.628;-1.624;2024-02-26T13:01:22;21.40;32.60
73121;DHT22;61307;49.628;-1.624;2024-02-26T13:03:50;21.40;32.60
73121;DHT22;61307;49.628;-1.624;2024-02-26T13:06:18;21.40;32.60
73121;DHT22;61307;49.628;-1.624;2024-02-26T13:08:46;21.40;32.60
73121;DHT22;61307;49.628;-1.624;2024-02-26T13:11:14;21.40;32.60
73121;DHT22;61307;49.628;-1.624;2024-02-26T13:13:41;21.40;32.60
73121;DHT22;61307;49.628;-1.624;2024-02-26T13:16:14;21.50;32.70
73121;DHT22;61307;49.628;-1.624;2024-02-26T13:18:42;21.50;32.70
73121;DHT22;61307;49.628;-1.624;2024-02-26T13:21:10;21.50;32.70
73121;DHT22;61307;49.628;-1.624;2024-02-26T13:23:38;21.50;32.60
73121;DHT22;61307;49.628;-1.624;2024-02-26T13:26:07;21.50;32.40
73121;DHT22;61307;49.628;-1.624;2024-02-26T13:28:34;21.50;32.50
73121;DHT22;61307;49.628;-1.624;2024-02-26T13:31:03;21.50;32.40
73121;DHT22;61307;49.628;-1.624;2024-02-26T13:33:31;21.50;32.40
73121;DHT22;61307;49.628;-1.624;2024-02-26T13:35:59;21.50;32.20
73121;DHT22;61307;49.628;-1.624;2024-02-26T13:38:27;21.50;32.20
73121;DHT22;61307;49.628;-1.624;2024-02-26T13:40:55;21.50;32.20
73121;DHT22;61307;49.628;-1.624;2024-02-26T13:43:23;21.50;32.10
73121;DHT22;61307;49.628;-1.624;2024-02-26T13:45:50;21.50;32.10
73121;DHT22;61307;49.628;-1.624;2024-02-26T13:48:17;21.60;32.20
73121;DHT22;61307;49.628;-1.624;2024-02-26T13:50:44;21.60;32.10
73121;DHT22;61307;49.628;-1.624;2024-02-26T13:53:14;21.60;32.20
73121;DHT22;61307;49.628;-1.624;2024-02-26T13:55:41;21.60;32.10
73121;DHT22;61307;49.628;-1.624;2024-02-26T13:58:11;21.60;32.00
73121;DHT22;61307;49.628;-1.624;2024-02-26T14:00:40;21.60;32.00
73121;DHT22;61307;49.628;-1.624;2024-02-26T14:03:08;21.50;31.90
73121;DHT22;61307;49.628;-1.624;2024-02-26T14:05:35;21.60;32.00
73121;DHT22;61307;49.628;-1.624;2024-02-26T14:08:03;21.60;32.60
73121;DHT22;61307;49.628;-1.624;2024-02-26T14:10:29;21.50;31.80
73121;DHT22;61307;49.628;-1.624;2024-02-26T14:12:57;21.60;31.90
73121;DHT22;61307;49.628;-1.624;2024-02-26T14:15:24;21.60;31.90
73121;DHT22;61307;49.628;-1.624;2024-02-26T14:17:52;21.60;31.80
73121;DHT22;61307;49.628;-1.624;2024-02-26T14:20:22;21.60;31.90
73121;DHT22;61307;49.628;-1.624;2024-02-26T14:22:49;21.60;31.70
73121;DHT22;61307;49.628;-1.624;2024-02-26T14:25:18;21.60;31.70
73121;DHT22;61307;49.628;-1.624;2024-02-26T14:27:47;21.60;31.70
73121;DHT22;61307;49.628;-1.624;2024-02-26T14:30:14;21.60;31.70
73121;DHT22;61307;49.628;-1.624;2024-02-26T14:32:41;21.60;31.80
73121;DHT22;61307;49.628;-1.624;2024-02-26T14:35:11;21.60;31.70
73121;DHT22;61307;49.628;-1.624;2024-02-26T14:37:38;21.60;31.80
73121;DHT22;61307;49.628;-1.624;2024-02-26T14:40:06;21.60;31.80
73121;DHT22;61307;49.628;-1.624;2024-02-26T14:42:35;21.60;31.90
73121;DHT22;61307;49.628;-1.624;2024-02-26T14:45:03;21.60;31.70
73121;DHT22;61307;49.628;-1.624;2024-02-26T14:47:32;21.60;31.80
73121;DHT22;61307;49.628;-1.624;2024-02-26T14:49:59;21.60;31.70
73121;DHT22;61307;49.628;-1.624;2024-02-26T14:52:33;21.60;31.70
73121;DHT22;61307;49.628;-1.624;2024-02-26T14:55:00;21.60;31.70
73121;DHT22;61307;49.628;-1.624;2024-02-26T14:57:27;21.60;31.80
73121;DHT22;61307;49.628;-1.624;2024-02-26T14:59:55;21.60;31.70
73121;DHT22;61307;49.628;-1.624;2024-02-26T15:02:35;21.60;31.70
73121;DHT22;61307;49.628;-1.624;2024-02-26T15:05:03;21.60;31.70
73121;DHT22;61307;49.628;-1.624;2024-02-26T15:07:34;21.60;31.70
73121;DHT22;61307;49.628;-1.624;2024-02-26T15:10:03;21.60;31.70
73121;DHT22;61307;49.628;-1.624;2024-02-26T15:12:30;21.60;31.70
73121;DHT22;61307;49.628;-1.624;2024-02-26T15:14:57;21.60;31.70
73121;DHT22;61307;49.628;-1.624;2024-02-26T15:17:26;21.60;31.70
73121;DHT22;61307;49.628;-1.624;2024-02-26T15:19:55;21.60;31.70